Jackson, PA

3:11 PM EDT on October 01, 2016 (GMT -0400)
Page Lake, PA | | Change Station

Elev 1499 ft 41.86 °N, 75.65 °W | Updated 0 second ago

Overcast
Overcast
62.2 °F
Feels Like 62.2 °F
N
0.0
Wind Variable Wind from SSW
Gusts 7.0 mph

Today
High -- | Low -- °F
--% Chance of Precip.
Yesterday
High -- | Low -- °F
Precip. -- in
Pressure 30.16 in
Visibility 10.0 miles
Clouds Overcast 1200 ft
Dew Point 57 °F
Humidity 84%
Rainfall 0.00 in
Snow Depth Not available.
6:59 AM 6:43 PM
New Moon, 1% visible
METAR KBGM 011853Z 11008KT 10SM OVC012 16/13 A3015 RMK AO2 SLP211 T01560133
Pressure 30.16 in
Visibility 10.0 miles
Clouds Overcast 1200 ft
Dew Point 57 °F
Humidity 84%
Rainfall 0.00 in
Snow Depth Not available.
6:59 AM 6:43 PM
New Moon, 1% visible
METAR KBGM 011853Z 11008KT 10SM OVC012 16/13 A3015 RMK AO2 SLP211 T01560133

10-Day Weather Forecast

Almanac

Astronomy

Oct. 01, 2016 Rise Set
Actual Time
Civil Twilight
Nautical Twilight
Astronomical Twilight
Moon
Length of Visible Light
Length of Day
Tomorrow will be .
, % of the Moon is Illuminated

Today's Extremes

State Highs State Lows

Community

WunderPhotos

Upload Photos

1,942,999 photos uploaded!

WunderBlog® & News

Nearby

Air Quality

  Air Quality AQ Index Pollutant
Not available.

Snow Depth

Station Depth Elevation

Earthquake Activity

City Distance Mag. Time & Date
Minimum magnitude displayed is 2.5.

Coastal Water Temperatures

Place Temperature

Stations

Nearby Weather Stations

Station Location Temp. Windchill Dew Point Humidity Wind Precip. Elev Updated Type
                   

Watches & Warnings

There are currently no watches in effect.